Terminal Aerodrome Forecast
Issued by NWS

Home | Current Version | Previous Version | Text Only | Print | Product List | Glossary On
Versions: 1 2 3 4 5 6 7 8 9 10 11 12 13 14 15
000
FTUS43 KLSX 301700
TAFUIN
TAF
KUIN 301737Z 3018/3118 23012G20KT P6SM SKC
     FM310000 21008KT P6SM SKC
     FM310600 25008KT P6SM SKC
     FM311100 33008KT P6SM SCT250=

USA.gov is the U.S. government's official web portal to all federal, state and local government web resources and services.